Time,TemperatureF,DewpointF,PressureIn,WindDirection,WindDirectionDegrees,WindSpeedMPH,WindSpeedGustMPH,Humidity,HourlyPrecipIn,Conditions,Clouds,dailyrainin,SolarRadiationWatts/m^2,SoftwareType,DateUTC
2014-03-14 00:00:00,47.4,44.9,30.11,NE,37,0.0,0.0,91,0.00,,,0.00,0,Wunderground v.1.15,2014-03-14 07:00:00,
2014-03-14 00:10:00,47.4,45.2,30.10,NE,37,0.0,0.0,92,0.00,,,0.00,0,Wunderground v.1.15,2014-03-14 07:10:00,
2014-03-14 00:15:00,47.4,45.2,30.10,NE,37,0.0,0.0,92,0.00,,,0.00,0,Wunderground v.1.15,2014-03-14 07:15:00,
2014-03-14 00:20:00,47.3,45.1,30.10,NE,37,0.0,0.0,92,0.00,,,0.00,0,Wunderground v.1.15,2014-03-14 07:20:00,
2014-03-14 00:29:00,47.3,45.1,30.10,NE,37,0.0,0.0,92,0.00,,,0.00,0,Wunderground v.1.15,2014-03-14 07:29:00,
2014-03-14 00:35:00,47.2,44.7,30.10,NE,37,0.0,1.0,91,0.00,,,0.00,0,Wunderground v.1.15,2014-03-14 07:35:00,
2014-03-14 00:45:00,47.2,44.7,30.09,NE,37,0.0,1.0,91,0.00,,,0.00,0,Wunderground v.1.15,2014-03-14 07:45:00,
2014-03-14 00:55:00,47.2,45.0,30.09,NE,37,0.0,1.0,92,0.00,,,0.00,0,Wunderground v.1.15,2014-03-14 07:55:00,
2014-03-14 01:09:00,47.2,45.0,30.08,NE,37,0.0,2.0,92,0.00,,,0.00,0,Wunderground v.1.15,2014-03-14 08:09:00,
2014-03-14 01:15:00,47.2,45.0,30.07,NE,37,0.0,2.0,92,0.00,,,0.00,0,Wunderground v.1.15,2014-03-14 08:15:00,
2014-03-14 01:25:00,47.2,45.0,30.07,NE,37,0.0,2.0,92,0.00,,,0.00,0,Wunderground v.1.15,2014-03-14 08:25:00,
2014-03-14 01:40:00,47.2,45.3,30.06,NE,37,0.0,1.0,93,0.00,,,0.00,0,Wunderground v.1.15,2014-03-14 08:40:00,
2014-03-14 01:45:00,47.2,45.3,30.06,NE,37,0.0,1.0,93,0.00,,,0.00,0,Wunderground v.1.15,2014-03-14 08:45:00,
2014-03-14 01:50:00,47.2,45.3,30.06,NE,37,0.0,1.0,93,0.00,,,0.00,0,Wunderground v.1.15,2014-03-14 08:50:00,
2014-03-14 02:00:00,47.1,45.2,30.05,NE,37,0.0,1.0,93,0.00,,,0.00,0,Wunderground v.1.15,2014-03-14 09:00:00,
2014-03-14 02:09:00,47.1,45.2,30.04,ESE,121,0.0,3.0,93,0.00,,,0.00,0,Wunderground v.1.15,2014-03-14 09:09:00,
2014-03-14 02:15:00,47.2,45.3,30.04,ESE,121,0.0,3.0,93,0.00,,,0.00,0,Wunderground v.1.15,2014-03-14 09:15:00,
2014-03-14 02:25:00,47.0,45.1,30.03,NE,41,1.0,3.0,93,0.00,,,0.00,0,Wunderground v.1.15,2014-03-14 09:25:00,
2014-03-14 02:35:00,47.1,45.5,30.03,NE,49,3.0,4.0,94,0.00,,,0.00,0,Wunderground v.1.15,2014-03-14 09:35:00,
2014-03-14 02:45:00,47.1,45.5,30.03,NE,40,0.0,4.0,94,0.00,,,0.00,0,Wunderground v.1.15,2014-03-14 09:45:00,
2014-03-14 02:55:00,47.2,45.8,30.03,NE,39,1.0,4.0,95,0.00,,,0.00,0,Wunderground v.1.15,2014-03-14 09:55:00,
2014-03-14 03:10:00,47.2,45.6,30.02,NE,45,0.0,5.0,94,0.00,,,0.00,0,Wunderground v.1.15,2014-03-14 10:10:00,
2014-03-14 03:15:00,47.2,45.8,30.02,NE,53,0.0,5.0,95,0.00,,,0.00,0,Wunderground v.1.15,2014-03-14 10:15:00,
2014-03-14 03:20:00,47.3,45.9,30.02,SE,146,0.0,5.0,95,0.00,,,0.00,0,Wunderground v.1.15,2014-03-14 10:20:00,
2014-03-14 03:30:00,47.3,45.9,30.02,SSE,168,1.0,5.0,95,0.00,,,0.00,0,Wunderground v.1.15,2014-03-14 10:30:00,
2014-03-14 03:39:00,47.3,46.2,30.01,ESE,105,0.0,4.0,96,0.00,,,0.00,0,Wunderground v.1.15,2014-03-14 10:39:00,
2014-03-14 03:45:00,47.3,46.2,30.01,South,177,0.0,4.0,96,0.00,,,0.00,0,Wunderground v.1.15,2014-03-14 10:45:00,
2014-03-14 03:50:00,47.3,46.2,30.00,ENE,70,0.0,4.0,96,0.00,,,0.00,0,Wunderground v.1.15,2014-03-14 10:50:00,
2014-03-14 04:00:00,47.4,46.3,30.00,NE,41,0.0,4.0,96,0.00,,,0.00,0,Wunderground v.1.15,2014-03-14 11:00:00,
2014-03-14 04:09:00,47.4,46.3,29.99,SSE,164,0.0,3.0,96,0.00,,,0.00,0,Wunderground v.1.15,2014-03-14 11:09:00,
2014-03-14 04:15:00,47.4,46.3,29.99,SSE,164,0.0,3.0,96,0.00,,,0.00,0,Wunderground v.1.15,2014-03-14 11:15:00,
2014-03-14 04:25:00,47.4,46.3,29.98,ENE,60,0.0,3.0,96,0.00,,,0.00,0,Wunderground v.1.15,2014-03-14 11:25:00,
2014-03-14 04:39:00,47.4,46.6,29.98,SSW,213,0.0,4.0,97,0.00,,,0.00,0,Wunderground v.1.15,2014-03-14 11:39:00,
2014-03-14 04:45:00,47.5,46.4,29.97,SSW,213,0.0,4.0,96,0.00,,,0.00,0,Wunderground v.1.15,2014-03-14 11:45:00,
2014-03-14 04:50:00,47.5,46.4,29.97,SSW,198,0.0,4.0,96,0.00,,,0.00,0,Wunderground v.1.15,2014-03-14 11:50:00,
2014-03-14 04:55:00,47.6,46.8,29.98,ENE,66,0.0,4.0,97,0.00,,,0.00,0,Wunderground v.1.15,2014-03-14 11:55:00,
2014-03-14 05:09:00,47.6,46.5,29.97,East,93,0.0,3.0,96,0.00,,,0.00,0,Wunderground v.1.15,2014-03-14 12:09:00,
2014-03-14 05:15:00,47.6,46.5,29.97,ENE,74,2.0,3.0,96,0.00,,,0.00,0,Wunderground v.1.15,2014-03-14 12:15:00,
2014-03-14 05:25:00,47.6,46.8,29.97,NE,39,0.0,3.0,97,0.00,,,0.00,0,Wunderground v.1.15,2014-03-14 12:25:00,
2014-03-14 05:40:00,47.7,46.9,29.97,ENE,58,0.0,6.0,97,0.00,,,0.00,0,Wunderground v.1.15,2014-03-14 12:40:00,
2014-03-14 05:45:00,47.7,46.9,29.97,ESE,117,0.0,6.0,97,0.00,,,0.00,0,Wunderground v.1.15,2014-03-14 12:45:00,
2014-03-14 05:50:00,47.7,46.9,29.97,South,186,0.0,6.0,97,0.00,,,0.00,0,Wunderground v.1.15,2014-03-14 12:50:00,
2014-03-14 06:00:00,47.7,46.9,29.97,SE,144,0.0,6.0,97,0.00,,,0.00,0,Wunderground v.1.15,2014-03-14 13:00:00,
2014-03-14 06:10:00,47.7,46.9,29.98,ESE,115,0.0,5.0,97,0.00,,,0.00,0,Wunderground v.1.15,2014-03-14 13:10:00,
2014-03-14 06:15:00,47.8,47.0,29.98,ESE,109,0.0,5.0,97,0.00,,,0.00,0,Wunderground v.1.15,2014-03-14 13:15:00,
2014-03-14 06:25:00,47.8,47.0,29.99,NE,55,0.0,5.0,97,0.00,,,0.00,0,Wunderground v.1.15,2014-03-14 13:25:00,
2014-03-14 06:39:00,47.8,47.0,29.98,NE,55,0.0,3.0,97,0.00,,,0.00,0,Wunderground v.1.15,2014-03-14 13:39:00,
2014-03-14 06:45:00,47.8,47.0,29.98,NE,54,0.0,3.0,97,0.00,,,0.00,0,Wunderground v.1.15,2014-03-14 13:45:00,
2014-03-14 06:50:00,47.8,47.0,29.97,ENE,58,0.0,3.0,97,0.00,,,0.00,0,Wunderground v.1.15,2014-03-14 13:50:00,
2014-03-14 07:00:00,47.8,47.0,29.98,ESE,103,0.0,3.0,97,0.00,,,0.00,0,Wunderground v.1.15,2014-03-14 14:00:00,
2014-03-14 07:09:00,47.8,47.0,29.98,SE,134,0.0,2.0,97,0.00,,,0.00,0,Wunderground v.1.15,2014-03-14 14:09:00,
2014-03-14 07:15:00,47.7,46.9,29.98,SSE,155,0.0,2.0,97,0.00,,,0.00,0,Wunderground v.1.15,2014-03-14 14:15:00,
2014-03-14 07:20:00,47.7,46.9,29.98,ENE,75,0.0,2.0,97,0.00,,,0.00,0,Wunderground v.1.15,2014-03-14 14:20:00,
2014-03-14 07:30:00,47.7,46.6,29.99,NE,38,0.0,2.0,96,0.00,,,0.00,0,Wunderground v.1.15,2014-03-14 14:30:00,
2014-03-14 07:40:00,47.7,46.6,30.00,ESE,111,0.0,2.0,96,0.00,,,0.00,0,Wunderground v.1.15,2014-03-14 14:40:00,
2014-03-14 07:45:00,47.7,46.6,30.00,ESE,111,0.0,2.0,96,0.00,,,0.00,0,Wunderground v.1.15,2014-03-14 14:45:00,
2014-03-14 07:50:00,47.6,46.5,30.00,NNE,26,0.0,2.0,96,0.00,,,0.00,0,Wunderground v.1.15,2014-03-14 14:50:00,
2014-03-14 07:59:00,47.6,46.5,30.00,East,81,0.0,2.0,96,0.00,,,0.00,0,Wunderground v.1.15,2014-03-14 14:59:00,
2014-03-14 08:09:00,47.6,46.5,30.00,SE,131,0.0,3.0,96,0.00,,,0.00,0,Wunderground v.1.15,2014-03-14 15:09:00,
2014-03-14 08:15:00,47.5,46.4,30.01,SE,124,0.0,3.0,96,0.00,,,0.00,0,Wunderground v.1.15,2014-03-14 15:15:00,
2014-03-14 08:25:00,47.5,46.4,30.01,ESE,111,0.0,3.0,96,0.00,,,0.00,0,Wunderground v.1.15,2014-03-14 15:25:00,
2014-03-14 08:39:00,47.4,46.0,30.01,NE,43,0.0,3.0,95,0.00,,,0.00,0,Wunderground v.1.15,2014-03-14 15:39:00,
2014-03-14 08:45:00,47.4,46.3,30.01,East,85,0.0,3.0,96,0.00,,,0.00,0,Wunderground v.1.15,2014-03-14 15:45:00,
2014-03-14 08:55:00,47.5,46.1,30.02,East,92,0.0,3.0,95,0.00,,,0.00,0,Wunderground v.1.15,2014-03-14 15:55:00,
2014-03-14 09:09:00,47.7,46.6,30.03,East,88,1.0,2.0,96,0.00,,,0.00,0,Wunderground v.1.15,2014-03-14 16:09:00,
2014-03-14 09:15:00,47.7,46.3,30.03,ENE,67,0.0,2.0,95,0.00,,,0.00,0,Wunderground v.1.15,2014-03-14 16:15:00,
2014-03-14 09:20:00,47.8,46.4,30.03,NE,43,0.0,2.0,95,0.00,,,0.00,0,Wunderground v.1.15,2014-03-14 16:20:00,
2014-03-14 09:30:00,47.9,46.5,30.04,NE,43,0.0,2.0,95,0.00,,,0.00,0,Wunderground v.1.15,2014-03-14 16:30:00,
2014-03-14 09:40:00,48.1,46.7,30.05,NE,43,0.0,4.0,95,0.00,,,0.00,0,Wunderground v.1.15,2014-03-14 16:40:00,
2014-03-14 09:45:00,48.2,46.8,30.05,NE,43,0.0,4.0,95,0.00,,,0.00,0,Wunderground v.1.15,2014-03-14 16:45:00,
2014-03-14 09:50:00,48.3,46.7,30.06,NE,43,0.0,4.0,94,0.00,,,0.00,0,Wunderground v.1.15,2014-03-14 16:50:00,
2014-03-14 10:00:00,48.5,46.9,30.06,NE,43,0.0,4.0,94,0.00,,,0.00,0,Wunderground v.1.15,2014-03-14 17:00:00,
2014-03-14 10:09:00,48.7,46.8,30.07,NE,43,0.0,2.0,93,0.00,,,0.00,0,Wunderground v.1.15,2014-03-14 17:09:00,
2014-03-14 10:15:00,48.8,46.9,30.08,NE,43,0.0,2.0,93,0.00,,,0.00,0,Wunderground v.1.15,2014-03-14 17:15:00,
2014-03-14 10:25:00,49.1,47.2,30.09,NE,43,0.0,2.0,93,0.00,,,0.00,0,Wunderground v.1.15,2014-03-14 17:25:00,
2014-03-14 10:39:00,49.2,47.0,30.10,NE,44,0.0,2.0,92,0.00,,,0.00,0,Wunderground v.1.15,2014-03-14 17:39:00,
2014-03-14 10:45:00,49.4,47.2,30.10,NE,44,0.0,2.0,92,0.00,,,0.00,0,Wunderground v.1.15,2014-03-14 17:45:00,
2014-03-14 10:50:00,49.4,47.2,30.11,NE,44,0.0,2.0,92,0.00,,,0.00,0,Wunderground v.1.15,2014-03-14 17:50:00,
2014-03-14 10:59:00,49.5,47.0,30.11,NE,44,0.0,2.0,91,0.00,,,0.00,0,Wunderground v.1.15,2014-03-14 17:59:00,
2014-03-14 11:09:00,50.1,47.6,30.13,NE,44,0.0,1.0,91,0.00,,,0.00,0,Wunderground v.1.15,2014-03-14 18:09:00,
2014-03-14 11:15:00,50.5,47.7,30.13,NE,44,0.0,1.0,90,0.00,,,0.00,0,Wunderground v.1.15,2014-03-14 18:15:00,
2014-03-14 11:25:00,51.3,47.9,30.13,NE,44,0.0,1.0,88,0.00,,,0.00,0,Wunderground v.1.15,2014-03-14 18:25:00,
2014-03-14 11:40:00,52.5,47.8,30.15,NE,44,0.0,1.0,84,0.00,,,0.00,0,Wunderground v.1.15,2014-03-14 18:40:00,
2014-03-14 11:45:00,52.9,47.9,30.15,NE,44,0.0,1.0,83,0.00,,,0.00,0,Wunderground v.1.15,2014-03-14 18:45:00,
2014-03-14 11:50:00,53.2,47.5,30.16,NE,44,0.0,1.0,81,0.00,,,0.00,0,Wunderground v.1.15,2014-03-14 18:50:00,
2014-03-14 12:00:00,53.4,47.0,30.17,NE,45,0.0,1.0,79,0.00,,,0.00,0,Wunderground v.1.15,2014-03-14 19:00:00,
2014-03-14 12:10:00,53.6,47.6,30.17,ESE,121,0.0,1.0,80,0.00,,,0.00,0,Wunderground v.1.15,2014-03-14 19:10:00,
2014-03-14 12:15:00,54.0,47.0,30.17,ESE,121,0.0,1.0,77,0.00,,,0.00,0,Wunderground v.1.15,2014-03-14 19:15:00,
2014-03-14 12:20:00,54.2,46.8,30.17,ESE,122,0.0,1.0,76,0.00,,,0.00,0,Wunderground v.1.15,2014-03-14 19:20:00,
2014-03-14 12:29:00,54.0,46.6,30.18,ESE,122,1.0,1.0,76,0.00,,,0.00,0,Wunderground v.1.15,2014-03-14 19:29:00,
2014-03-14 12:39:00,54.9,47.5,30.18,East,91,0.0,5.0,76,0.00,,,0.00,0,Wunderground v.1.15,2014-03-14 19:39:00,
2014-03-14 12:45:00,55.7,47.5,30.18,SSE,156,0.0,5.0,74,0.00,,,0.00,0,Wunderground v.1.15,2014-03-14 19:45:00,
2014-03-14 12:50:00,56.3,47.8,30.18,South,188,0.0,5.0,73,0.00,,,0.00,0,Wunderground v.1.15,2014-03-14 19:50:00,
2014-03-14 12:55:00,56.3,47.8,30.18,South,188,0.0,5.0,73,0.00,,,0.00,0,Wunderground v.1.15,2014-03-14 19:55:00,
2014-03-14 13:09:00,55.1,46.2,30.19,ESE,111,0.0,3.0,72,0.00,,,0.00,0,Wunderground v.1.15,2014-03-14 20:09:00,
2014-03-14 13:15:00,54.8,46.3,30.19,SSW,204,0.0,3.0,73,0.00,,,0.00,0,Wunderground v.1.15,2014-03-14 20:15:00,
2014-03-14 13:25:00,54.5,46.4,30.20,ESE,118,0.0,3.0,74,0.00,,,0.00,0,Wunderground v.1.15,2014-03-14 20:25:00,
2014-03-14 13:40:00,54.1,46.3,30.21,ENE,69,0.0,1.0,75,0.00,,,0.00,0,Wunderground v.1.15,2014-03-14 20:40:00,
2014-03-14 13:45:00,53.8,46.4,30.21,ENE,69,0.0,1.0,76,0.00,,,0.00,0,Wunderground v.1.15,2014-03-14 20:45:00,
2014-03-14 13:50:00,53.5,46.5,30.21,ESE,105,0.0,1.0,77,0.00,,,0.00,0,Wunderground v.1.15,2014-03-14 20:50:00,
2014-03-14 13:59:00,53.1,46.4,30.22,East,84,0.0,1.0,78,0.00,,,0.00,0,Wunderground v.1.15,2014-03-14 20:59:00,
2014-03-14 14:09:00,52.6,47.3,30.23,East,84,0.0,1.0,82,0.00,,,0.00,0,Wunderground v.1.15,2014-03-14 21:09:00,
2014-03-14 14:15:00,52.4,47.7,30.23,East,84,0.0,1.0,84,0.00,,,0.00,0,Wunderground v.1.15,2014-03-14 21:15:00,
2014-03-14 14:25:00,52.0,47.6,30.23,East,84,0.0,1.0,85,0.00,,,0.00,0,Wunderground v.1.15,2014-03-14 21:25:00,
2014-03-14 14:39:00,51.8,48.1,30.23,East,84,0.0,2.0,87,0.00,,,0.00,0,Wunderground v.1.15,2014-03-14 21:39:00,
2014-03-14 14:45:00,51.9,48.5,30.23,East,84,0.0,2.0,88,0.00,,,0.00,0,Wunderground v.1.15,2014-03-14 21:45:00,
2014-03-14 14:55:00,52.3,48.5,30.23,East,84,0.0,2.0,87,0.00,,,0.00,0,Wunderground v.1.15,2014-03-14 21:55:00,
2014-03-14 15:09:00,52.3,48.5,30.23,East,84,0.0,2.0,87,0.00,,,0.00,0,Wunderground v.1.15,2014-03-14 22:09:00,
2014-03-14 15:15:00,52.1,48.3,30.23,East,84,0.0,2.0,87,0.00,,,0.00,0,Wunderground v.1.15,2014-03-14 22:15:00,
2014-03-14 15:25:00,51.8,48.4,30.24,East,84,0.0,2.0,88,0.00,,,0.00,0,Wunderground v.1.15,2014-03-14 22:25:00,
2014-03-14 15:40:00,51.5,47.8,30.24,East,84,0.0,1.0,87,0.00,,,0.00,0,Wunderground v.1.15,2014-03-14 22:40:00,
2014-03-14 15:45:00,51.5,47.5,30.24,East,84,0.0,1.0,86,0.00,,,0.00,0,Wunderground v.1.15,2014-03-14 22:45:00,
2014-03-14 15:50:00,51.4,47.4,30.25,East,84,0.0,1.0,86,0.00,,,0.00,0,Wunderground v.1.15,2014-03-14 22:50:00,
2014-03-14 16:00:00,51.2,46.8,30.25,East,84,0.0,1.0,85,0.00,,,0.00,0,Wunderground v.1.15,2014-03-14 23:00:00,
2014-03-14 16:10:00,51.1,47.1,30.25,East,84,0.0,1.0,86,0.00,,,0.00,0,Wunderground v.1.15,2014-03-14 23:10:00,
2014-03-14 16:15:00,51.1,46.7,30.26,East,84,0.0,1.0,85,0.00,,,0.00,0,Wunderground v.1.15,2014-03-14 23:15:00,
2014-03-14 16:25:00,51.0,47.0,30.26,East,84,0.0,1.0,86,0.00,,,0.00,0,Wunderground v.1.15,2014-03-14 23:25:00,
2014-03-14 16:39:00,51.0,47.0,30.27,East,84,0.0,0.0,86,0.00,,,0.00,0,Wunderground v.1.15,2014-03-14 23:39:00,
2014-03-14 16:45:00,50.9,46.9,30.27,East,84,0.0,0.0,86,0.00,,,0.00,0,Wunderground v.1.15,2014-03-14 23:45:00,
2014-03-14 16:55:00,50.9,46.9,30.28,East,84,0.0,0.0,86,0.00,,,0.00,0,Wunderground v.1.15,2014-03-14 23:55:00,
2014-03-14 17:10:00,50.8,46.5,30.28,East,84,0.0,1.0,85,0.00,,,0.00,0,Wunderground v.1.15,2014-03-15 00:10:00,
2014-03-14 17:15:00,50.8,46.5,30.28,East,84,0.0,1.0,85,0.00,,,0.00,0,Wunderground v.1.15,2014-03-15 00:15:00,
2014-03-14 17:20:00,50.7,46.7,30.28,East,84,0.0,1.0,86,0.00,,,0.00,0,Wunderground v.1.15,2014-03-15 00:20:00,
2014-03-14 17:30:00,50.6,46.3,30.28,East,84,0.0,1.0,85,0.00,,,0.00,0,Wunderground v.1.15,2014-03-15 00:30:00,
2014-03-14 17:39:00,50.5,46.8,30.29,East,84,0.0,1.0,87,0.00,,,0.00,0,Wunderground v.1.15,2014-03-15 00:39:00,
2014-03-14 17:45:00,50.5,46.5,30.29,East,84,0.0,1.0,86,0.00,,,0.00,0,Wunderground v.1.15,2014-03-15 00:45:00,
2014-03-14 17:55:00,50.4,46.4,30.29,East,84,0.0,1.0,86,0.00,,,0.00,0,Wunderground v.1.15,2014-03-15 00:55:00,
2014-03-14 18:09:00,50.3,46.0,30.30,East,84,0.0,1.0,85,0.00,,,0.00,0,Wunderground v.1.15,2014-03-15 01:09:00,
2014-03-14 18:15:00,50.3,46.0,30.31,East,84,0.0,1.0,85,0.00,,,0.00,0,Wunderground v.1.15,2014-03-15 01:15:00,
2014-03-14 18:25:00,50.2,45.2,30.30,East,81,1.0,1.0,83,0.00,,,0.00,0,Wunderground v.1.15,2014-03-15 01:25:00,
2014-03-14 18:39:00,50.1,45.5,30.31,East,81,0.0,4.0,84,0.00,,,0.00,0,Wunderground v.1.15,2014-03-15 01:39:00,
2014-03-14 18:45:00,50.1,45.8,30.31,East,81,0.0,4.0,85,0.00,,,0.00,0,Wunderground v.1.15,2014-03-15 01:45:00,
2014-03-14 18:50:00,50.0,45.7,30.32,East,81,0.0,4.0,85,0.00,,,0.00,0,Wunderground v.1.15,2014-03-15 01:50:00,
2014-03-14 18:55:00,49.9,45.6,30.32,East,81,0.0,4.0,85,0.00,,,0.00,0,Wunderground v.1.15,2014-03-15 01:55:00,
2014-03-14 19:09:00,49.7,45.4,30.33,East,81,0.0,1.0,85,0.00,,,0.00,0,Wunderground v.1.15,2014-03-15 02:09:00,
2014-03-14 19:15:00,49.6,45.3,30.33,East,81,0.0,1.0,85,0.00,,,0.00,0,Wunderground v.1.15,2014-03-15 02:15:00,
2014-03-14 19:25:00,49.6,45.0,30.33,East,81,0.0,1.0,84,0.00,,,0.00,0,Wunderground v.1.15,2014-03-15 02:25:00,
2014-03-14 19:40:00,49.5,45.2,30.34,East,81,0.0,1.0,85,0.00,,,0.00,0,Wunderground v.1.15,2014-03-15 02:40:00,
2014-03-14 19:45:00,49.4,45.1,30.35,East,81,0.0,1.0,85,0.00,,,0.00,0,Wunderground v.1.15,2014-03-15 02:45:00,
2014-03-14 19:50:00,49.4,45.1,30.35,East,81,0.0,1.0,85,0.00,,,0.00,0,Wunderground v.1.15,2014-03-15 02:50:00,
2014-03-14 20:00:00,49.2,44.9,30.36,East,81,0.0,1.0,85,0.00,,,0.00,0,Wunderground v.1.15,2014-03-15 03:00:00,
2014-03-14 20:09:00,49.2,44.6,30.36,East,81,0.0,1.0,84,0.00,,,0.00,0,Wunderground v.1.15,2014-03-15 03:09:00,
2014-03-14 20:15:00,49.2,44.9,30.36,East,81,0.0,1.0,85,0.00,,,0.00,0,Wunderground v.1.15,2014-03-15 03:15:00,
2014-03-14 20:25:00,49.0,45.0,30.36,East,81,0.0,1.0,86,0.00,,,0.00,0,Wunderground v.1.15,2014-03-15 03:25:00,
2014-03-14 20:39:00,48.6,44.3,30.37,East,81,0.0,1.0,85,0.00,,,0.00,0,Wunderground v.1.15,2014-03-15 03:39:00,
2014-03-14 20:45:00,48.4,44.1,30.37,East,81,0.0,1.0,85,0.00,,,0.00,0,Wunderground v.1.15,2014-03-15 03:45:00,
2014-03-14 20:50:00,48.4,44.1,30.37,East,81,0.0,1.0,85,0.00,,,0.00,0,Wunderground v.1.15,2014-03-15 03:50:00,
2014-03-14 21:00:00,48.1,43.8,30.38,East,81,0.0,1.0,85,0.00,,,0.00,0,Wunderground v.1.15,2014-03-15 04:00:00,
2014-03-14 21:09:00,47.8,43.5,30.39,East,81,0.0,0.0,85,0.00,,,0.00,0,Wunderground v.1.15,2014-03-15 04:09:00,
2014-03-14 21:15:00,47.7,43.4,30.39,East,81,0.0,0.0,85,0.00,,,0.00,0,Wunderground v.1.15,2014-03-15 04:15:00,
2014-03-14 21:20:00,47.6,43.3,30.39,East,81,0.0,0.0,85,0.00,,,0.00,0,Wunderground v.1.15,2014-03-15 04:20:00,
2014-03-14 21:25:00,47.5,43.2,30.39,East,81,0.0,0.0,85,0.00,,,0.00,0,Wunderground v.1.15,2014-03-15 04:25:00,
2014-03-14 21:39:00,47.2,42.9,30.40,East,81,0.0,0.0,85,0.00,,,0.00,0,Wunderground v.1.15,2014-03-15 04:39:00,
2014-03-14 21:45:00,47.2,42.9,30.40,East,81,0.0,0.0,85,0.00,,,0.00,0,Wunderground v.1.15,2014-03-15 04:45:00,
2014-03-14 21:50:00,47.2,42.9,30.40,East,81,0.0,0.0,85,0.00,,,0.00,0,Wunderground v.1.15,2014-03-15 04:50:00,
2014-03-14 22:00:00,47.1,42.8,30.41,East,81,0.0,0.0,85,0.00,,,0.00,0,Wunderground v.1.15,2014-03-15 05:00:00,
2014-03-14 22:09:00,47.0,42.7,30.42,East,81,0.0,2.0,85,0.00,,,0.00,0,Wunderground v.1.15,2014-03-15 05:09:00,
2014-03-14 22:15:00,47.0,42.7,30.42,East,81,0.0,2.0,85,0.00,,,0.00,0,Wunderground v.1.15,2014-03-15 05:15:00,
2014-03-14 22:25:00,46.8,42.8,30.43,East,81,0.0,2.0,86,0.00,,,0.00,0,Wunderground v.1.15,2014-03-15 05:25:00,
2014-03-14 22:39:00,46.7,42.7,30.43,East,81,0.0,0.0,86,0.00,,,0.00,0,Wunderground v.1.15,2014-03-15 05:39:00,
2014-03-14 22:45:00,46.6,42.3,30.43,East,81,0.0,0.0,85,0.00,,,0.00,0,Wunderground v.1.15,2014-03-15 05:45:00,
2014-03-14 22:50:00,46.6,42.0,30.43,East,81,0.0,0.0,84,0.00,,,0.00,0,Wunderground v.1.15,2014-03-15 05:50:00,
2014-03-14 22:59:00,46.5,42.2,30.43,East,81,0.0,0.0,85,0.00,,,0.00,0,Wunderground v.1.15,2014-03-15 05:59:00,
2014-03-14 23:09:00,46.4,42.1,30.44,East,81,0.0,1.0,85,0.00,,,0.00,0,Wunderground v.1.15,2014-03-15 06:09:00,
2014-03-14 23:15:00,46.3,42.0,30.44,East,81,0.0,1.0,85,0.00,,,0.00,0,Wunderground v.1.15,2014-03-15 06:15:00,
2014-03-14 23:20:00,46.3,41.7,30.44,East,81,0.0,1.0,84,0.00,,,0.00,0,Wunderground v.1.15,2014-03-15 06:20:00,
2014-03-14 23:30:00,46.4,42.1,30.44,East,81,0.0,1.0,85,0.00,,,0.00,0,Wunderground v.1.15,2014-03-15 06:30:00,
2014-03-14 23:40:00,46.3,42.3,30.44,East,81,0.0,1.0,86,0.00,,,0.00,0,Wunderground v.1.15,2014-03-15 06:40:00,
2014-03-14 23:45:00,46.3,42.0,30.45,East,81,0.0,1.0,85,0.00,,,0.00,0,Wunderground v.1.15,2014-03-15 06:45:00,
2014-03-14 23:50:00,46.2,42.2,30.45,East,81,0.0,1.0,86,0.00,,,0.00,0,Wunderground v.1.15,2014-03-15 06:50:00,